sensor_id;sensor_type;location;lat;lon;timestamp;temperature;humidity
326;DHT22;150;52.352;14.058;2023-03-05T00:00:39;5.40;31.80
326;DHT22;150;52.352;14.058;2023-03-05T00:03:05;5.40;32.30
326;DHT22;150;52.352;14.058;2023-03-05T00:05:33;5.40;32.50
326;DHT22;150;52.352;14.058;2023-03-05T00:08:00;5.30;32.50
326;DHT22;150;52.352;14.058;2023-03-05T00:10:27;5.40;32.80
326;DHT22;150;52.352;14.058;2023-03-05T00:12:55;5.40;32.50
326;DHT22;150;52.352;14.058;2023-03-05T00:15:21;5.40;32.40
326;DHT22;150;52.352;14.058;2023-03-05T00:17:48;5.40;32.30
326;DHT22;150;52.352;14.058;2023-03-05T00:20:15;5.50;32.60
326;DHT22;150;52.352;14.058;2023-03-05T00:22:42;5.50;32.40
326;DHT22;150;52.352;14.058;2023-03-05T00:25:09;5.50;32.30
326;DHT22;150;52.352;14.058;2023-03-05T00:27:35;5.50;31.80
326;DHT22;150;52.352;14.058;2023-03-05T00:30:04;5.50;31.80
326;DHT22;150;52.352;14.058;2023-03-05T00:32:31;5.60;31.60
326;DHT22;150;52.352;14.058;2023-03-05T00:34:58;5.60;31.60
326;DHT22;150;52.352;14.058;2023-03-05T00:37:25;5.60;31.80
326;DHT22;150;52.352;14.058;2023-03-05T00:39:52;5.70;31.60
326;DHT22;150;52.352;14.058;2023-03-05T00:42:18;5.60;31.60
326;DHT22;150;52.352;14.058;2023-03-05T00:44:45;5.70;31.60
326;DHT22;150;52.352;14.058;2023-03-05T00:47:13;5.60;31.20
326;DHT22;150;52.352;14.058;2023-03-05T00:49:42;5.70;31.50
326;DHT22;150;52.352;14.058;2023-03-05T00:52:09;5.50;31.30
326;DHT22;150;52.352;14.058;2023-03-05T00:54:36;5.50;32.00
326;DHT22;150;52.352;14.058;2023-03-05T00:57:03;5.30;32.40
326;DHT22;150;52.352;14.058;2023-03-05T00:59:30;5.30;32.80
326;DHT22;150;52.352;14.058;2023-03-05T01:01:57;5.30;33.20
326;DHT22;150;52.352;14.058;2023-03-05T01:04:25;5.30;33.50
326;DHT22;150;52.352;14.058;2023-03-05T01:06:52;5.40;33.50
326;DHT22;150;52.352;14.058;2023-03-05T01:09:18;5.40;33.60
326;DHT22;150;52.352;14.058;2023-03-05T01:11:46;5.40;33.70
326;DHT22;150;52.352;14.058;2023-03-05T01:14:13;5.50;33.70
326;DHT22;150;52.352;14.058;2023-03-05T01:16:39;5.50;33.70
326;DHT22;150;52.352;14.058;2023-03-05T01:19:06;5.50;33.80
326;DHT22;150;52.352;14.058;2023-03-05T01:21:35;5.40;34.20
326;DHT22;150;52.352;14.058;2023-03-05T01:24:02;5.40;35.10
326;DHT22;150;52.352;14.058;2023-03-05T01:26:29;5.30;36.80
326;DHT22;150;52.352;14.058;2023-03-05T01:28:56;5.30;37.80
326;DHT22;150;52.352;14.058;2023-03-05T01:31:23;5.30;39.30
326;DHT22;150;52.352;14.058;2023-03-05T01:33:50;5.20;40.00
326;DHT22;150;52.352;14.058;2023-03-05T01:36:17;5.10;40.60
326;DHT22;150;52.352;14.058;2023-03-05T01:38:48;5.10;42.00
326;DHT22;150;52.352;14.058;2023-03-05T01:41:24;5.00;42.90
326;DHT22;150;52.352;14.058;2023-03-05T01:43:53;4.90;44.20
326;DHT22;150;52.352;14.058;2023-03-05T01:46:47;4.80;44.30
326;DHT22;150;52.352;14.058;2023-03-05T01:49:46;4.90;44.60
326;DHT22;150;52.352;14.058;2023-03-05T01:52:23;4.90;45.20
326;DHT22;150;52.352;14.058;2023-03-05T01:55:22;4.80;45.10
326;DHT22;150;52.352;14.058;2023-03-05T01:58:01;4.80;46.10
326;DHT22;150;52.352;14.058;2023-03-05T02:03:57;4.90;46.30
326;DHT22;150;52.352;14.058;2023-03-05T02:06:50;5.30;47.80
326;DHT22;150;52.352;14.058;2023-03-05T02:09:18;4.70;47.20
326;DHT22;150;52.352;14.058;2023-03-05T02:12:13;4.80;47.90
326;DHT22;150;52.352;14.058;2023-03-05T02:17:48;4.80;47.60
326;DHT22;150;52.352;14.058;2023-03-05T02:20:28;4.90;48.00
326;DHT22;150;52.352;14.058;2023-03-05T02:23:04;4.90;47.60
326;DHT22;150;52.352;14.058;2023-03-05T02:25:32;5.00;47.50
326;DHT22;150;52.352;14.058;2023-03-05T02:28:29;4.80;47.50
326;DHT22;150;52.352;14.058;2023-03-05T02:31:24;4.80;47.20
326;DHT22;150;52.352;14.058;2023-03-05T02:34:03;4.90;47.00
326;DHT22;150;52.352;14.058;2023-03-05T02:36:42;4.80;46.10
326;DHT22;150;52.352;14.058;2023-03-05T02:39:10;4.80;46.80
326;DHT22;150;52.352;14.058;2023-03-05T02:41:45;4.60;45.60
326;DHT22;150;52.352;14.058;2023-03-05T02:44:26;4.40;45.90
326;DHT22;150;52.352;14.058;2023-03-05T02:47:02;4.60;45.90
326;DHT22;150;52.352;14.058;2023-03-05T02:49:47;4.50;45.30
326;DHT22;150;52.352;14.058;2023-03-05T02:52:38;4.50;45.10
326;DHT22;150;52.352;14.058;2023-03-05T02:59:10;4.50;44.60
326;DHT22;150;52.352;14.058;2023-03-05T03:01:51;4.50;44.60
326;DHT22;150;52.352;14.058;2023-03-05T03:04:32;4.50;42.40
326;DHT22;150;52.352;14.058;2023-03-05T03:07:24;4.40;42.50
326;DHT22;150;52.352;14.058;2023-03-05T03:10:25;4.40;42.20
326;DHT22;150;52.352;14.058;2023-03-05T03:12:46;4.40;42.00
326;DHT22;150;52.352;14.058;2023-03-05T03:15:25;4.40;40.70
326;DHT22;150;52.352;14.058;2023-03-05T03:18:03;4.20;39.90
326;DHT22;150;52.352;14.058;2023-03-05T03:20:30;4.10;39.20
326;DHT22;150;52.352;14.058;2023-03-05T03:23:09;4.20;39.40
326;DHT22;150;52.352;14.058;2023-03-05T03:25:43;4.00;39.00
326;DHT22;150;52.352;14.058;2023-03-05T03:28:10;4.20;39.30
326;DHT22;150;52.352;14.058;2023-03-05T03:31:07;4.00;38.70
326;DHT22;150;52.352;14.058;2023-03-05T03:34:00;3.90;39.00
326;DHT22;150;52.352;14.058;2023-03-05T03:36:41;4.00;39.20
326;DHT22;150;52.352;14.058;2023-03-05T03:39:19;4.00;39.10
326;DHT22;150;52.352;14.058;2023-03-05T03:42:00;4.00;37.40
326;DHT22;150;52.352;14.058;2023-03-05T03:44:39;4.00;38.00
326;DHT22;150;52.352;14.058;2023-03-05T03:47:17;3.90;38.40
326;DHT22;150;52.352;14.058;2023-03-05T03:49:58;4.10;37.20
326;DHT22;150;52.352;14.058;2023-03-05T03:53:12;4.10;37.30
326;DHT22;150;52.352;14.058;2023-03-05T03:56:09;3.90;35.90
326;DHT22;150;52.352;14.058;2023-03-05T03:58:36;3.90;35.80
326;DHT22;150;52.352;14.058;2023-03-05T04:01:03;3.90;35.40
326;DHT22;150;52.352;14.058;2023-03-05T04:03:31;3.90;35.20
326;DHT22;150;52.352;14.058;2023-03-05T04:05:58;4.00;34.70
326;DHT22;150;52.352;14.058;2023-03-05T04:08:24;4.00;34.40
326;DHT22;150;52.352;14.058;2023-03-05T04:10:51;4.00;33.50
326;DHT22;150;52.352;14.058;2023-03-05T04:13:18;4.00;33.20
326;DHT22;150;52.352;14.058;2023-03-05T04:15:44;3.90;33.00
326;DHT22;150;52.352;14.058;2023-03-05T04:18:11;4.00;33.80
326;DHT22;150;52.352;14.058;2023-03-05T04:20:39;4.10;34.30
326;DHT22;150;52.352;14.058;2023-03-05T04:23:06;4.10;33.00
326;DHT22;150;52.352;14.058;2023-03-05T04:25:34;4.10;33.30
326;DHT22;150;52.352;14.058;2023-03-05T04:28:02;4.00;32.50
326;DHT22;150;52.352;14.058;2023-03-05T04:30:29;4.00;33.30
326;DHT22;150;52.352;14.058;2023-03-05T04:32:55;4.10;33.30
326;DHT22;150;52.352;14.058;2023-03-05T04:35:22;4.10;32.50
326;DHT22;150;52.352;14.058;2023-03-05T04:37:50;4.10;32.60
326;DHT22;150;52.352;14.058;2023-03-05T04:40:17;4.10;31.10
326;DHT22;150;52.352;14.058;2023-03-05T04:42:44;4.10;32.20
326;DHT22;150;52.352;14.058;2023-03-05T04:45:11;4.10;31.70
326;DHT22;150;52.352;14.058;2023-03-05T04:47:38;4.10;31.40
326;DHT22;150;52.352;14.058;2023-03-05T04:50:06;4.10;31.30
326;DHT22;150;52.352;14.058;2023-03-05T04:52:37;4.10;30.70
326;DHT22;150;52.352;14.058;2023-03-05T04:55:06;4.00;31.20
326;DHT22;150;52.352;14.058;2023-03-05T04:57:34;4.00;31.10
326;DHT22;150;52.352;14.058;2023-03-05T05:00:00;4.00;31.50
326;DHT22;150;52.352;14.058;2023-03-05T05:02:31;4.10;31.60
326;DHT22;150;52.352;14.058;2023-03-05T05:04:57;4.00;32.00
326;DHT22;150;52.352;14.058;2023-03-05T05:07:24;4.00;32.00
326;DHT22;150;52.352;14.058;2023-03-05T05:09:51;4.00;33.00
326;DHT22;150;52.352;14.058;2023-03-05T05:12:19;3.90;32.10
326;DHT22;150;52.352;14.058;2023-03-05T05:14:45;3.90;32.90
326;DHT22;150;52.352;14.058;2023-03-05T05:17:12;3.90;32.80
326;DHT22;150;52.352;14.058;2023-03-05T05:19:39;4.00;33.00
326;DHT22;150;52.352;14.058;2023-03-05T05:22:05;4.10;33.50
326;DHT22;150;52.352;14.058;2023-03-05T05:24:32;4.10;32.90
326;DHT22;150;52.352;14.058;2023-03-05T05:26:58;4.00;33.00
326;DHT22;150;52.352;14.058;2023-03-05T05:29:26;4.00;33.00
326;DHT22;150;52.352;14.058;2023-03-05T05:31:53;4.00;33.20
326;DHT22;150;52.352;14.058;2023-03-05T05:34:20;4.10;33.60
326;DHT22;150;52.352;14.058;2023-03-05T05:36:49;4.10;33.20
326;DHT22;150;52.352;14.058;2023-03-05T05:39:16;3.90;33.70
326;DHT22;150;52.352;14.058;2023-03-05T05:41:42;4.00;34.50
326;DHT22;150;52.352;14.058;2023-03-05T05:44:09;4.00;33.80
326;DHT22;150;52.352;14.058;2023-03-05T05:46:37;4.00;34.20
326;DHT22;150;52.352;14.058;2023-03-05T05:49:04;4.00;34.40
326;DHT22;150;52.352;14.058;2023-03-05T05:51:30;4.10;33.90
326;DHT22;150;52.352;14.058;2023-03-05T05:53:57;4.10;33.90
326;DHT22;150;52.352;14.058;2023-03-05T05:56:24;4.00;33.80
326;DHT22;150;52.352;14.058;2023-03-05T05:58:51;3.80;34.40
326;DHT22;150;52.352;14.058;2023-03-05T06:01:20;3.80;34.90
326;DHT22;150;52.352;14.058;2023-03-05T06:03:49;3.90;34.90
326;DHT22;150;52.352;14.058;2023-03-05T06:06:17;3.90;34.70
326;DHT22;150;52.352;14.058;2023-03-05T06:08:44;4.00;34.60
326;DHT22;150;52.352;14.058;2023-03-05T06:11:11;3.90;34.60
326;DHT22;150;52.352;14.058;2023-03-05T06:13:38;3.90;34.60
326;DHT22;150;52.352;14.058;2023-03-05T06:16:07;4.00;35.20
326;DHT22;150;52.352;14.058;2023-03-05T06:18:34;3.90;34.20
326;DHT22;150;52.352;14.058;2023-03-05T06:21:04;4.00;34.90
326;DHT22;150;52.352;14.058;2023-03-05T06:23:32;4.00;34.70
326;DHT22;150;52.352;14.058;2023-03-05T06:25:59;3.90;34.50
326;DHT22;150;52.352;14.058;2023-03-05T06:28:26;3.90;34.90
326;DHT22;150;52.352;14.058;2023-03-05T06:30:59;4.10;35.50
326;DHT22;150;52.352;14.058;2023-03-05T06:33:26;4.10;35.00
326;DHT22;150;52.352;14.058;2023-03-05T06:35:52;4.00;34.80
326;DHT22;150;52.352;14.058;2023-03-05T06:38:20;4.00;35.30
326;DHT22;150;52.352;14.058;2023-03-05T06:40:47;4.10;35.20
326;DHT22;150;52.352;14.058;2023-03-05T06:43:14;4.10;34.80
326;DHT22;150;52.352;14.058;2023-03-05T06:45:40;4.10;35.00
326;DHT22;150;52.352;14.058;2023-03-05T06:48:07;4.20;35.20
326;DHT22;150;52.352;14.058;2023-03-05T06:50:34;4.10;35.00
326;DHT22;150;52.352;14.058;2023-03-05T06:53:00;4.10;34.50
326;DHT22;150;52.352;14.058;2023-03-05T06:55:29;4.10;34.60
326;DHT22;150;52.352;14.058;2023-03-05T06:57:55;4.20;35.00
326;DHT22;150;52.352;14.058;2023-03-05T07:00:22;4.30;35.00
326;DHT22;150;52.352;14.058;2023-03-05T07:02:53;4.30;34.10
326;DHT22;150;52.352;14.058;2023-03-05T07:05:20;4.30;34.10
326;DHT22;150;52.352;14.058;2023-03-05T07:07:47;4.10;34.70
326;DHT22;150;52.352;14.058;2023-03-05T07:10:13;4.20;34.70
326;DHT22;150;52.352;14.058;2023-03-05T07:12:41;4.40;34.60
326;DHT22;150;52.352;14.058;2023-03-05T07:15:08;4.60;34.30
326;DHT22;150;52.352;14.058;2023-03-05T07:17:35;4.90;34.60
326;DHT22;150;52.352;14.058;2023-03-05T07:20:02;5.10;33.80
326;DHT22;150;52.352;14.058;2023-03-05T07:22:29;5.30;32.90
326;DHT22;150;52.352;14.058;2023-03-05T07:24:56;5.20;32.40
326;DHT22;150;52.352;14.058;2023-03-05T07:27:22;5.30;31.30
326;DHT22;150;52.352;14.058;2023-03-05T07:29:51;5.30;32.10
326;DHT22;150;52.352;14.058;2023-03-05T07:32:17;5.40;31.90
326;DHT22;150;52.352;14.058;2023-03-05T07:34:44;5.40;31.10
326;DHT22;150;52.352;14.058;2023-03-05T07:37:12;5.30;31.50
326;DHT22;150;52.352;14.058;2023-03-05T07:39:39;5.40;31.60
326;DHT22;150;52.352;14.058;2023-03-05T07:42:06;5.30;30.80
326;DHT22;150;52.352;14.058;2023-03-05T07:44:32;5.30;31.30
326;DHT22;150;52.352;14.058;2023-03-05T07:47:00;5.40;31.40
326;DHT22;150;52.352;14.058;2023-03-05T07:49:27;5.50;31.80
326;DHT22;150;52.352;14.058;2023-03-05T07:51:53;5.60;30.40
326;DHT22;150;52.352;14.058;2023-03-05T07:54:20;5.60;31.00
326;DHT22;150;52.352;14.058;2023-03-05T07:56:47;5.70;30.70
326;DHT22;150;52.352;14.058;2023-03-05T07:59:13;5.80;30.00
326;DHT22;150;52.352;14.058;2023-03-05T08:01:40;5.90;30.00
326;DHT22;150;52.352;14.058;2023-03-05T08:04:08;5.90;29.30
326;DHT22;150;52.352;14.058;2023-03-05T08:06:38;6.00;29.50
326;DHT22;150;52.352;14.058;2023-03-05T08:09:05;6.00;28.90
326;DHT22;150;52.352;14.058;2023-03-05T08:11:32;6.00;28.50
326;DHT22;150;52.352;14.058;2023-03-05T08:13:58;5.60;28.90
326;DHT22;150;52.352;14.058;2023-03-05T08:16:25;5.70;28.20
326;DHT22;150;52.352;14.058;2023-03-05T08:18:54;5.70;28.60
326;DHT22;150;52.352;14.058;2023-03-05T08:21:24;5.60;28.40
326;DHT22;150;52.352;14.058;2023-03-05T08:23:53;5.70;29.30
326;DHT22;150;52.352;14.058;2023-03-05T08:26:23;6.00;29.00
326;DHT22;150;52.352;14.058;2023-03-05T08:28:50;6.20;27.60
326;DHT22;150;52.352;14.058;2023-03-05T08:31:18;6.50;27.40
326;DHT22;150;52.352;14.058;2023-03-05T08:33:45;6.60;27.80
326;DHT22;150;52.352;14.058;2023-03-05T08:36:12;6.80;26.80
326;DHT22;150;52.352;14.058;2023-03-05T08:38:40;6.80;26.30
326;DHT22;150;52.352;14.058;2023-03-05T08:41:08;6.80;26.10
326;DHT22;150;52.352;14.058;2023-03-05T08:43:35;6.80;25.90
326;DHT22;150;52.352;14.058;2023-03-05T08:46:02;6.80;25.00
326;DHT22;150;52.352;14.058;2023-03-05T08:48:29;6.50;24.60
326;DHT22;150;52.352;14.058;2023-03-05T08:50:57;6.30;24.30
326;DHT22;150;52.352;14.058;2023-03-05T08:53:23;6.20;25.10
326;DHT22;150;52.352;14.058;2023-03-05T08:55:55;6.20;23.80
326;DHT22;150;52.352;14.058;2023-03-05T08:58:22;5.80;23.90
326;DHT22;150;52.352;14.058;2023-03-05T09:00:49;5.80;24.80
326;DHT22;150;52.352;14.058;2023-03-05T09:03:16;5.70;25.00
326;DHT22;150;52.352;14.058;2023-03-05T09:05:43;5.60;24.50
326;DHT22;150;52.352;14.058;2023-03-05T09:08:09;5.70;25.70
326;DHT22;150;52.352;14.058;2023-03-05T09:10:36;5.90;25.70
326;DHT22;150;52.352;14.058;2023-03-05T09:13:04;6.10;25.10
326;DHT22;150;52.352;14.058;2023-03-05T09:15:32;5.80;23.70
326;DHT22;150;52.352;14.058;2023-03-05T09:17:58;6.00;24.70
326;DHT22;150;52.352;14.058;2023-03-05T09:20:25;6.30;25.10
326;DHT22;150;52.352;14.058;2023-03-05T09:22:52;6.50;24.50
326;DHT22;150;52.352;14.058;2023-03-05T09:25:19;6.70;23.10
326;DHT22;150;52.352;14.058;2023-03-05T09:27:45;6.90;23.20
326;DHT22;150;52.352;14.058;2023-03-05T09:30:15;7.10;22.90
326;DHT22;150;52.352;14.058;2023-03-05T09:32:41;7.10;21.70
326;DHT22;150;52.352;14.058;2023-03-05T09:35:09;7.00;22.00
326;DHT22;150;52.352;14.058;2023-03-05T09:37:36;6.60;21.90
326;DHT22;150;52.352;14.058;2023-03-05T09:40:03;6.60;22.10
326;DHT22;150;52.352;14.058;2023-03-05T09:42:49;6.70;21.80
326;DHT22;150;52.352;14.058;2023-03-05T09:45:25;6.70;19.90
326;DHT22;150;52.352;14.058;2023-03-05T09:48:05;6.60;21.30
326;DHT22;150;52.352;14.058;2023-03-05T09:50:38;6.60;20.70
326;DHT22;150;52.352;14.058;2023-03-05T09:53:14;6.60;20.40
326;DHT22;150;52.352;14.058;2023-03-05T09:55:43;6.80;20.30
326;DHT22;150;52.352;14.058;2023-03-05T09:58:14;6.80;20.60
326;DHT22;150;52.352;14.058;2023-03-05T10:00:46;6.90;20.70
326;DHT22;150;52.352;14.058;2023-03-05T10:03:18;7.00;19.60
326;DHT22;150;52.352;14.058;2023-03-05T10:05:59;7.00;19.50
326;DHT22;150;52.352;14.058;2023-03-05T10:08:33;6.90;19.10
326;DHT22;150;52.352;14.058;2023-03-05T10:11:07;6.80;18.50
326;DHT22;150;52.352;14.058;2023-03-05T10:13:41;6.60;19.10
326;DHT22;150;52.352;14.058;2023-03-05T10:16:31;6.50;19.60
326;DHT22;150;52.352;14.058;2023-03-05T10:19:06;6.50;20.40
326;DHT22;150;52.352;14.058;2023-03-05T10:21:40;6.50;20.40
326;DHT22;150;52.352;14.058;2023-03-05T10:24:15;6.60;20.40
326;DHT22;150;52.352;14.058;2023-03-05T10:26:52;6.80;20.70
326;DHT22;150;52.352;14.058;2023-03-05T10:29:38;6.80;20.70
326;DHT22;150;52.352;14.058;2023-03-05T10:32:23;6.80;20.80
326;DHT22;150;52.352;14.058;2023-03-05T10:35:13;6.90;20.90
326;DHT22;150;52.352;14.058;2023-03-05T10:38:07;7.00;21.00
326;DHT22;150;52.352;14.058;2023-03-05T10:40:40;7.20;20.80
326;DHT22;150;52.352;14.058;2023-03-05T10:43:18;7.40;20.80
326;DHT22;150;52.352;14.058;2023-03-05T10:45:49;7.50;20.00
326;DHT22;150;52.352;14.058;2023-03-05T10:48:27;7.40;19.40
326;DHT22;150;52.352;14.058;2023-03-05T10:50:58;7.30;19.00
326;DHT22;150;52.352;14.058;2023-03-05T10:53:29;7.30;19.20
326;DHT22;150;52.352;14.058;2023-03-05T10:56:00;6.90;19.70
326;DHT22;150;52.352;14.058;2023-03-05T10:58:27;6.50;20.50
326;DHT22;150;52.352;14.058;2023-03-05T11:01:02;6.30;21.90
326;DHT22;150;52.352;14.058;2023-03-05T11:03:49;6.20;21.80
326;DHT22;150;52.352;14.058;2023-03-05T11:06:27;6.10;23.70
326;DHT22;150;52.352;14.058;2023-03-05T11:08:55;6.00;23.80
326;DHT22;150;52.352;14.058;2023-03-05T11:11:33;6.00;24.50
326;DHT22;150;52.352;14.058;2023-03-05T11:14:30;6.20;24.70
326;DHT22;150;52.352;14.058;2023-03-05T11:16:59;6.30;24.30
326;DHT22;150;52.352;14.058;2023-03-05T11:19:29;6.50;24.10
326;DHT22;150;52.352;14.058;2023-03-05T11:22:06;6.70;24.10
326;DHT22;150;52.352;14.058;2023-03-05T11:24:33;6.70;23.70
326;DHT22;150;52.352;14.058;2023-03-05T11:26:59;6.90;24.30
326;DHT22;150;52.352;14.058;2023-03-05T11:29:27;6.90;24.20
326;DHT22;150;52.352;14.058;2023-03-05T11:31:56;6.80;23.90
326;DHT22;150;52.352;14.058;2023-03-05T11:34:41;6.60;24.40
326;DHT22;150;52.352;14.058;2023-03-05T11:37:20;6.80;24.30
326;DHT22;150;52.352;14.058;2023-03-05T11:39:50;6.90;24.40
326;DHT22;150;52.352;14.058;2023-03-05T11:42:30;7.00;22.90
326;DHT22;150;52.352;14.058;2023-03-05T11:44:57;7.00;23.60
326;DHT22;150;52.352;14.058;2023-03-05T11:47:28;6.90;23.80
326;DHT22;150;52.352;14.058;2023-03-05T11:50:05;6.80;23.80
326;DHT22;150;52.352;14.058;2023-03-05T11:52:44;6.50;24.30
326;DHT22;150;52.352;14.058;2023-03-05T11:55:14;6.30;24.90
326;DHT22;150;52.352;14.058;2023-03-05T11:57:45;6.40;25.20
326;DHT22;150;52.352;14.058;2023-03-05T12:00:17;6.40;25.00
326;DHT22;150;52.352;14.058;2023-03-05T12:02:48;6.40;24.90
326;DHT22;150;52.352;14.058;2023-03-05T12:05:17;6.50;24.80
326;DHT22;150;52.352;14.058;2023-03-05T12:07:47;6.60;23.50
326;DHT22;150;52.352;14.058;2023-03-05T12:10:16;6.40;23.20
326;DHT22;150;52.352;14.058;2023-03-05T12:12:47;6.50;23.80
326;DHT22;150;52.352;14.058;2023-03-05T12:15:29;6.50;24.10
326;DHT22;150;52.352;14.058;2023-03-05T12:18:05;6.80;24.90
326;DHT22;150;52.352;14.058;2023-03-05T12:20:42;7.10;23.70
326;DHT22;150;52.352;14.058;2023-03-05T12:23:12;6.80;23.40
326;DHT22;150;52.352;14.058;2023-03-05T12:25:46;6.80;23.50
326;DHT22;150;52.352;14.058;2023-03-05T12:28:14;6.80;23.50
326;DHT22;150;52.352;14.058;2023-03-05T12:30:56;6.70;24.10
326;DHT22;150;52.352;14.058;2023-03-05T12:33:34;6.30;25.30
326;DHT22;150;52.352;14.058;2023-03-05T12:36:35;6.40;26.00
326;DHT22;150;52.352;14.058;2023-03-05T12:39:48;6.60;25.70
326;DHT22;150;52.352;14.058;2023-03-05T12:42:42;6.90;24.30
326;DHT22;150;52.352;14.058;2023-03-05T12:48:42;7.00;22.30
326;DHT22;150;52.352;14.058;2023-03-05T12:51:13;7.10;22.40
326;DHT22;150;52.352;14.058;2023-03-05T12:53:40;7.00;22.40
326;DHT22;150;52.352;14.058;2023-03-05T12:56:17;7.10;23.00
326;DHT22;150;52.352;14.058;2023-03-05T12:58:47;7.00;23.40
326;DHT22;150;52.352;14.058;2023-03-05T13:01:32;7.10;23.20
326;DHT22;150;52.352;14.058;2023-03-05T13:04:02;7.20;22.90
326;DHT22;150;52.352;14.058;2023-03-05T13:06:36;7.20;22.90
326;DHT22;150;52.352;14.058;2023-03-05T13:09:06;7.00;23.80
326;DHT22;150;52.352;14.058;2023-03-05T13:11:36;7.20;24.00
326;DHT22;150;52.352;14.058;2023-03-05T13:14:27;7.50;23.70
326;DHT22;150;52.352;14.058;2023-03-05T13:16:55;7.30;23.40
326;DHT22;150;52.352;14.058;2023-03-05T13:19:22;7.40;23.00
326;DHT22;150;52.352;14.058;2023-03-05T13:21:57;7.50;23.70
326;DHT22;150;52.352;14.058;2023-03-05T13:24:24;7.60;22.90
326;DHT22;150;52.352;14.058;2023-03-05T13:26:52;7.70;23.40
326;DHT22;150;52.352;14.058;2023-03-05T13:29:20;7.70;22.80
326;DHT22;150;52.352;14.058;2023-03-05T13:31:48;7.70;22.60
326;DHT22;150;52.352;14.058;2023-03-05T13:34:18;7.50;23.20
326;DHT22;150;52.352;14.058;2023-03-05T13:36:54;7.60;22.70
326;DHT22;150;52.352;14.058;2023-03-05T13:39:24;7.80;23.30
326;DHT22;150;52.352;14.058;2023-03-05T13:41:57;7.60;22.00
326;DHT22;150;52.352;14.058;2023-03-05T13:44:24;7.60;22.70
326;DHT22;150;52.352;14.058;2023-03-05T13:46:51;7.50;22.00
326;DHT22;150;52.352;14.058;2023-03-05T13:49:20;7.40;22.60
326;DHT22;150;52.352;14.058;2023-03-05T13:51:49;7.40;22.60
326;DHT22;150;52.352;14.058;2023-03-05T13:54:17;7.40;22.40
326;DHT22;150;52.352;14.058;2023-03-05T13:56:52;7.30;21.60
326;DHT22;150;52.352;14.058;2023-03-05T13:59:22;7.40;21.40
326;DHT22;150;52.352;14.058;2023-03-05T14:01:49;7.50;22.00
326;DHT22;150;52.352;14.058;2023-03-05T14:04:20;7.60;20.70
326;DHT22;150;52.352;14.058;2023-03-05T14:06:49;7.60;21.50
326;DHT22;150;52.352;14.058;2023-03-05T14:09:20;7.60;19.30
326;DHT22;150;52.352;14.058;2023-03-05T14:11:55;7.30;19.50
326;DHT22;150;52.352;14.058;2023-03-05T14:14:25;7.20;18.80
326;DHT22;150;52.352;14.058;2023-03-05T14:16:52;7.00;19.00
326;DHT22;150;52.352;14.058;2023-03-05T14:19:31;6.90;18.60
326;DHT22;150;52.352;14.058;2023-03-05T14:21:59;6.70;18.10
326;DHT22;150;52.352;14.058;2023-03-05T14:24:27;6.60;19.10
326;DHT22;150;52.352;14.058;2023-03-05T14:26:56;6.40;19.90
326;DHT22;150;52.352;14.058;2023-03-05T14:29:26;6.20;21.90
326;DHT22;150;52.352;14.058;2023-03-05T14:31:55;6.10;22.60
326;DHT22;150;52.352;14.058;2023-03-05T14:34:27;6.10;22.60
326;DHT22;150;52.352;14.058;2023-03-05T14:36:56;6.00;23.80
326;DHT22;150;52.352;14.058;2023-03-05T14:39:34;5.90;23.20
326;DHT22;150;52.352;14.058;2023-03-05T14:42:25;5.60;23.20
326;DHT22;150;52.352;14.058;2023-03-05T14:44:54;5.60;23.30
326;DHT22;150;52.352;14.058;2023-03-05T14:47:21;5.70;23.80
326;DHT22;150;52.352;14.058;2023-03-05T14:49:48;5.60;23.40
326;DHT22;150;52.352;14.058;2023-03-05T14:52:16;5.60;23.50
326;DHT22;150;52.352;14.058;2023-03-05T14:54:44;5.60;23.30
326;DHT22;150;52.352;14.058;2023-03-05T14:57:15;5.60;23.20
326;DHT22;150;52.352;14.058;2023-03-05T14:59:44;5.50;23.00
326;DHT22;150;52.352;14.058;2023-03-05T15:02:14;5.30;23.70
326;DHT22;150;52.352;14.058;2023-03-05T15:04:41;5.40;23.60
326;DHT22;150;52.352;14.058;2023-03-05T15:07:14;5.30;23.80
326;DHT22;150;52.352;14.058;2023-03-05T15:09:41;5.50;23.80
326;DHT22;150;52.352;14.058;2023-03-05T15:12:09;5.50;23.00
326;DHT22;150;52.352;14.058;2023-03-05T15:14:36;5.50;22.70
326;DHT22;150;52.352;14.058;2023-03-05T15:17:05;5.60;22.60
326;DHT22;150;52.352;14.058;2023-03-05T15:19:33;5.70;22.70
326;DHT22;150;52.352;14.058;2023-03-05T15:21:59;5.80;22.40
326;DHT22;150;52.352;14.058;2023-03-05T15:24:26;5.70;22.20
326;DHT22;150;52.352;14.058;2023-03-05T15:26:53;5.80;22.40
326;DHT22;150;52.352;14.058;2023-03-05T15:29:20;6.00;22.50
326;DHT22;150;52.352;14.058;2023-03-05T15:31:46;6.00;22.10
326;DHT22;150;52.352;14.058;2023-03-05T15:34:13;6.10;22.10
326;DHT22;150;52.352;14.058;2023-03-05T15:36:41;6.20;21.80
326;DHT22;150;52.352;14.058;2023-03-05T15:39:09;6.30;21.90
326;DHT22;150;52.352;14.058;2023-03-05T15:41:36;6.30;21.50
326;DHT22;150;52.352;14.058;2023-03-05T15:44:03;6.40;21.50
326;DHT22;150;52.352;14.058;2023-03-05T15:46:29;6.30;21.40
326;DHT22;150;52.352;14.058;2023-03-05T15:48:57;6.40;21.60
326;DHT22;150;52.352;14.058;2023-03-05T15:51:24;6.40;21.10
326;DHT22;150;52.352;14.058;2023-03-05T15:53:52;6.40;21.50
326;DHT22;150;52.352;14.058;2023-03-05T15:56:19;6.40;22.00
326;DHT22;150;52.352;14.058;2023-03-05T15:58:47;6.50;21.70
326;DHT22;150;52.352;14.058;2023-03-05T16:01:14;6.50;21.80
326;DHT22;150;52.352;14.058;2023-03-05T16:03:43;6.50;21.50
326;DHT22;150;52.352;14.058;2023-03-05T16:06:11;6.50;21.20
326;DHT22;150;52.352;14.058;2023-03-05T16:08:41;6.50;21.30
326;DHT22;150;52.352;14.058;2023-03-05T16:11:10;6.50;21.60
326;DHT22;150;52.352;14.058;2023-03-05T16:13:39;6.50;21.90
326;DHT22;150;52.352;14.058;2023-03-05T16:16:07;6.50;21.20
326;DHT22;150;52.352;14.058;2023-03-05T16:18:37;6.50;20.90
326;DHT22;150;52.352;14.058;2023-03-05T16:21:10;6.40;20.90
326;DHT22;150;52.352;14.058;2023-03-05T16:23:38;6.30;21.40
326;DHT22;150;52.352;14.058;2023-03-05T16:26:05;6.30;21.90
326;DHT22;150;52.352;14.058;2023-03-05T16:28:34;6.30;22.00
326;DHT22;150;52.352;14.058;2023-03-05T16:31:01;6.30;21.90
326;DHT22;150;52.352;14.058;2023-03-05T16:33:27;6.20;21.80
326;DHT22;150;52.352;14.058;2023-03-05T16:36:17;6.20;20.80
326;DHT22;150;52.352;14.058;2023-03-05T16:38:45;6.00;21.20
326;DHT22;150;52.352;14.058;2023-03-05T16:41:13;6.00;21.70
326;DHT22;150;52.352;14.058;2023-03-05T16:43:42;5.90;21.60
326;DHT22;150;52.352;14.058;2023-03-05T16:46:11;5.90;21.60
326;DHT22;150;52.352;14.058;2023-03-05T16:48:39;5.90;21.70
326;DHT22;150;52.352;14.058;2023-03-05T16:51:07;5.90;21.60
326;DHT22;150;52.352;14.058;2023-03-05T16:53:34;5.90;21.60
326;DHT22;150;52.352;14.058;2023-03-05T16:56:01;5.80;21.60
326;DHT22;150;52.352;14.058;2023-03-05T16:58:28;5.80;21.60
326;DHT22;150;52.352;14.058;2023-03-05T17:00:56;5.80;22.00
326;DHT22;150;52.352;14.058;2023-03-05T17:03:23;5.80;21.90
326;DHT22;150;52.352;14.058;2023-03-05T17:05:49;5.80;22.00
326;DHT22;150;52.352;14.058;2023-03-05T17:08:16;5.80;22.30
326;DHT22;150;52.352;14.058;2023-03-05T17:10:43;5.80;22.40
326;DHT22;150;52.352;14.058;2023-03-05T17:13:09;5.90;22.70